Time;durP1;ratioP1;P1;durP2;ratioP2;P2;SDS_P1;SDS_P2;PMS_P1;PMS_P2;Temp;Humidity;BMP_temperature;BMP_pressure;BME280_temperature;BME280_humidity;BME280_pressure;Samples;Min_cycle;Max_cycle;Signal;HPM_P1;HPM_P2
2023/06/04 00:02:15;;;;;;;3.25;1.10;;;;;;;13.10;63.86;101774.66;6140475;23;20510;-77
2023/06/04 00:04:40;;;;;;;2.05;1.08;;;;;;;13.10;64.37;101774.66;6138775;23;20012;-77
2023/06/04 00:07:06;;;;;;;2.72;1.27;;;;;;;13.17;64.90;101771.34;6137157;23;20535;-77
2023/06/04 00:09:31;;;;;;;1.42;1.15;;;;;;;13.03;65.54;101760.50;6113048;23;20017;-77
2023/06/04 00:11:57;;;;;;;4.88;1.20;;;;;;;13.00;66.19;101768.97;6137358;23;20019;-78
2023/06/04 00:14:23;;;;;;;6.03;1.23;;;;;;;13.03;66.25;101769.59;6135535;23;20009;-77
2023/06/04 00:16:49;;;;;;;3.35;0.95;;;;;;;13.01;67.24;101765.22;6136358;23;20013;-77
2023/06/04 00:19:14;;;;;;;2.80;1.10;;;;;;;13.02;67.93;101756.88;6160695;23;20100;-77
2023/06/04 00:21:40;;;;;;;2.42;0.85;;;;;;;12.92;68.71;101768.66;6160938;23;20060;-77
2023/06/04 00:24:06;;;;;;;1.30;1.00;;;;;;;12.87;69.89;101763.50;6137291;23;20024;-78
2023/06/04 00:26:31;;;;;;;1.83;0.90;;;;;;;12.99;71.11;101770.84;6111095;23;20024;-77
2023/06/04 00:28:57;;;;;;;5.60;1.13;;;;;;;12.90;71.81;101762.41;6161300;23;20390;-78
2023/06/04 00:31:23;;;;;;;1.23;0.90;;;;;;;12.96;72.49;101771.06;6113537;23;20016;-77
2023/06/04 00:33:49;;;;;;;1.95;0.80;;;;;;;12.93;73.48;101763.03;6188518;23;20013;-77
2023/06/04 00:36:14;;;;;;;2.83;1.30;;;;;;;12.85;75.02;101755.41;6189582;23;20012;-77
2023/06/04 00:38:40;;;;;;;2.05;0.93;;;;;;;12.83;76.99;101756.50;6140036;23;20010;-77
2023/06/04 00:41:05;;;;;;;1.42;1.00;;;;;;;12.74;78.58;101762.66;6164038;23;20067;-77
2023/06/04 00:43:35;;;;;;;6.72;1.08;;;;;;;12.63;80.34;101757.97;6165457;23;20012;-77
2023/06/04 00:46:02;;;;;;;1.48;1.10;;;;;;;12.63;80.49;101761.59;6146275;23;20013;-77
2023/06/04 00:48:28;;;;;;;2.00;1.00;;;;;;;12.72;81.32;101761.91;6140216;23;20075;-77
2023/06/04 00:50:54;;;;;;;6.10;1.30;;;;;;;12.61;82.66;101759.91;6112583;23;20025;-76
2023/06/04 00:53:22;;;;;;;1.38;1.02;;;;;;;12.59;84.47;101762.81;6138427;23;20009;-77
2023/06/04 00:55:48;;;;;;;3.33;1.05;;;;;;;12.59;85.78;101761.91;6165717;23;20013;-77
2023/06/04 00:58:15;;;;;;;2.97;1.17;;;;;;;12.49;86.16;101750.72;6163226;23;20005;-76
2023/06/04 01:00:42;;;;;;;1.60;0.90;;;;;;;12.55;86.81;101765.88;6162332;23;20009;-77
2023/06/04 01:03:19;;;;;;;2.67;0.90;;;;;;;12.51;87.71;101757.00;6135941;23;20084;-77
2023/06/04 01:05:59;;;;;;;1.00;0.90;;;;;;;12.47;88.52;101766.44;6157839;23;20020;-77
2023/06/04 01:08:27;;;;;;;2.33;0.90;;;;;;;12.49;90.00;101762.59;6186095;23;20009;-77
2023/06/04 01:10:56;;;;;;;3.10;1.00;;;;;;;12.39;90.70;101761.50;6133974;23;20434;-77
2023/06/04 01:13:22;;;;;;;3.55;0.95;;;;;;;12.38;91.31;101761.59;6134062;23;20017;-77
2023/06/04 01:15:48;;;;;;;1.73;1.08;;;;;;;12.35;92.65;101757.22;6113261;23;20063;-77
2023/06/04 01:18:29;;;;;;;2.90;1.08;;;;;;;12.38;94.07;101757.00;6135351;23;20017;-77
2023/06/04 01:21:07;;;;;;;6.40;1.15;;;;;;;12.32;94.64;101757.44;6160836;23;20009;-77
2023/06/04 01:23:45;;;;;;;5.57;1.05;;;;;;;12.28;94.95;101761.38;6159929;23;20049;-77
2023/06/04 01:26:11;;;;;;;10.07;1.10;;;;;;;12.26;96.40;101761.50;6135696;23;20372;-77
2023/06/04 01:28:37;;;;;;;4.88;1.00;;;;;;;12.22;97.12;101759.09;6160434;23;20306;-77
2023/06/04 01:31:07;;;;;;;3.80;0.95;;;;;;;12.14;97.72;101754.16;6161810;23;20032;-77
2023/06/04 01:33:33;;;;;;;2.10;0.88;;;;;;;12.18;97.81;101763.03;6114426;23;20020;-77
2023/06/04 01:35:58;;;;;;;2.65;1.13;;;;;;;12.17;98.97;101764.91;6138257;23;20025;-77
2023/06/04 01:38:24;;;;;;;3.08;1.02;;;;;;;12.18;99.00;101763.03;6165659;23;20013;-78
2023/06/04 01:40:50;;;;;;;1.02;0.90;;;;;;;12.20;99.05;101763.81;6167897;23;20032;-77
2023/06/04 01:43:16;;;;;;;3.53;1.17;;;;;;;12.13;99.18;101763.38;6165838;23;20021;-77
2023/06/04 01:45:42;;;;;;;1.08;0.98;;;;;;;12.10;100.00;101760.84;6140819;23;20016;-77
2023/06/04 01:48:07;;;;;;;2.90;0.80;;;;;;;12.02;100.00;101752.25;6114195;23;20013;-77
2023/06/04 01:50:33;;;;;;;4.45;1.10;;;;;;;12.04;100.00;101747.56;6189255;23;20021;-77
2023/06/04 01:52:59;;;;;;;5.07;1.05;;;;;;;11.92;100.00;101754.78;6136268;23;20071;-77
2023/06/04 01:55:25;;;;;;;6.28;0.98;;;;;;;11.92;100.00;101749.28;6112300;23;20008;-77
2023/06/04 01:57:51;;;;;;;2.33;1.33;;;;;;;11.88;100.00;101747.72;6143712;23;20426;-77
2023/06/04 02:00:17;;;;;;;2.70;1.17;;;;;;;11.91;100.00;101751.16;6140619;23;20009;-77
2023/06/04 02:02:45;;;;;;;4.70;1.10;;;;;;;11.90;100.00;101753.97;6159155;23;20036;-76
2023/06/04 02:05:11;;;;;;;3.20;0.90;;;;;;;11.88;100.00;101755.97;6162965;23;20076;-78
2023/06/04 02:07:44;;;;;;;2.20;1.23;;;;;;;11.83;100.00;101756.28;6137494;23;20017;-77
2023/06/04 02:10:16;;;;;;;4.70;0.88;;;;;;;11.78;100.00;101762.09;6135544;23;20075;-77
2023/06/04 02:12:54;;;;;;;2.75;1.05;;;;;;;11.67;100.00;101761.94;6185958;23;20032;-77
2023/06/04 02:15:20;;;;;;;3.28;1.10;;;;;;;11.67;100.00;101764.69;6137484;23;20013;-77
2023/06/04 02:17:47;;;;;;;1.27;1.00;;;;;;;11.76;100.00;101763.19;6111634;23;20029;-77
2023/06/04 02:20:13;;;;;;;5.53;1.10;;;;;;;11.64;100.00;101753.06;6188105;23;20016;-77
2023/06/04 02:22:38;;;;;;;2.95;1.05;;;;;;;11.68;100.00;101765.59;6138268;23;20017;-78
2023/06/04 02:25:05;;;;;;;2.63;1.02;;;;;;;11.56;100.00;101762.72;6137913;23;20384;-78
2023/06/04 02:27:30;;;;;;;1.80;1.13;;;;;;;11.55;100.00;101755.44;6136229;23;20009;-78
2023/06/04 02:29:56;;;;;;;6.38;1.25;;;;;;;11.60;100.00;101755.13;6186880;23;20068;-78
2023/06/04 02:32:21;;;;;;;2.30;1.17;;;;;;;11.50;100.00;101765.00;6111116;23;20433;-78
2023/06/04 02:34:48;;;;;;;1.58;0.98;;;;;;;11.52;100.00;101760.28;6161087;23;20426;-78
2023/06/04 02:37:14;;;;;;;4.80;1.15;;;;;;;11.55;100.00;101769.16;6112603;23;20024;-78
2023/06/04 02:39:39;;;;;;;4.85;1.27;;;;;;;11.42;100.00;101765.50;6135460;23;20325;-77
2023/06/04 02:42:07;;;;;;;3.60;1.30;;;;;;;11.39;100.00;101769.31;6134119;23;20040;-77
2023/06/04 02:44:32;;;;;;;3.60;1.15;;;;;;;11.37;100.00;101770.44;6136576;23;20036;-77
2023/06/04 02:46:58;;;;;;;3.80;1.27;;;;;;;11.39;100.00;101768.47;6110872;23;20429;-77
2023/06/04 02:49:23;;;;;;;2.60;1.35;;;;;;;11.34;100.00;101765.16;6135810;23;20068;-77
2023/06/04 02:51:49;;;;;;;1.55;1.00;;;;;;;11.24;100.00;101764.88;6136392;23;20104;-77
2023/06/04 02:54:15;;;;;;;2.38;1.10;;;;;;;11.15;100.00;101760.91;6188832;23;20009;-77
2023/06/04 02:56:40;;;;;;;1.70;1.25;;;;;;;11.08;100.00;101762.28;6137955;23;20017;-77
2023/06/04 02:59:09;;;;;;;4.07;1.60;;;;;;;11.12;100.00;101754.78;6138237;23;20093;-77
2023/06/04 03:01:35;;;;;;;3.08;1.10;;;;;;;11.12;100.00;101757.50;6137677;23;20013;-77
2023/06/04 03:04:03;;;;;;;3.25;1.23;;;;;;;11.14;100.00;101761.88;6160238;23;20136;-77
2023/06/04 03:06:29;;;;;;;3.83;1.50;;;;;;;11.16;100.00;101756.31;6135712;23;20358;-77
2023/06/04 03:08:55;;;;;;;3.03;1.13;;;;;;;11.04;100.00;101768.97;6112380;23;20020;-77
2023/06/04 03:11:21;;;;;;;3.50;1.00;;;;;;;11.04;100.00;101774.47;6110893;23;20013;-77
2023/06/04 03:13:47;;;;;;;1.95;0.95;;;;;;;11.01;100.00;101767.31;6161477;23;20017;-77
2023/06/04 03:16:13;;;;;;;4.00;1.02;;;;;;;11.08;100.00;101776.00;6135554;23;20017;-78
2023/06/04 03:18:45;;;;;;;5.93;1.20;;;;;;;11.01;100.00;101767.31;6135155;23;20083;-77
2023/06/04 03:21:13;;;;;;;4.25;1.23;;;;;;;10.96;100.00;101765.88;6136860;23;20013;-77
2023/06/04 03:23:40;;;;;;;1.35;1.20;;;;;;;10.94;100.00;101763.22;6091844;23;20043;-77
2023/06/04 03:26:06;;;;;;;2.85;1.10;;;;;;;10.95;100.00;101758.63;6142484;23;20033;-77
2023/06/04 03:28:32;;;;;;;3.30;1.00;;;;;;;10.85;100.00;101764.72;6136462;23;20051;-77
2023/06/04 03:30:59;;;;;;;1.98;1.15;;;;;;;10.90;100.00;101760.78;6159071;23;20430;-77
2023/06/04 03:33:24;;;;;;;2.13;1.42;;;;;;;10.90;100.00;101763.53;6133271;23;20013;-77
2023/06/04 03:35:52;;;;;;;2.20;1.50;;;;;;;10.86;100.00;101765.59;6159636;23;20031;-77
2023/06/04 03:38:18;;;;;;;2.97;1.40;;;;;;;10.92;100.00;101769.78;6135782;23;20388;-77
2023/06/04 03:40:43;;;;;;;1.85;1.10;;;;;;;10.83;100.00;101771.28;6187990;23;20022;-76
2023/06/04 03:43:09;;;;;;;3.78;1.17;;;;;;;10.82;100.00;101766.75;6136825;23;20017;-77
2023/06/04 03:45:35;;;;;;;1.80;1.15;;;;;;;10.75;100.00;101763.53;6112484;23;20327;-77
2023/06/04 03:48:01;;;;;;;3.25;1.35;;;;;;;10.79;100.00;101767.84;6161493;23;20016;-77
2023/06/04 03:50:27;;;;;;;1.83;1.10;;;;;;;10.79;100.00;101766.94;6161614;23;20005;-77
2023/06/04 03:52:53;;;;;;;3.83;1.30;;;;;;;10.76;100.00;101770.78;6161959;23;20020;-77
2023/06/04 03:55:18;;;;;;;4.90;1.48;;;;;;;10.75;100.00;101774.50;6114357;23;20128;-76
2023/06/04 03:57:44;;;;;;;2.83;1.30;;;;;;;10.76;100.00;101764.44;6163449;23;20016;-76
2023/06/04 04:00:12;;;;;;;2.08;1.15;;;;;;;10.72;100.00;101768.34;6164231;23;20104;-77
2023/06/04 04:02:40;;;;;;;1.92;1.38;;;;;;;10.67;100.00;101763.16;6138320;23;20013;-78
2023/06/04 04:05:06;;;;;;;4.85;1.35;;;;;;;10.82;100.00;101774.97;6163159;23;20397;-78
2023/06/04 04:07:31;;;;;;;7.05;1.20;;;;;;;10.84;100.00;101773.91;6136321;23;20017;-77
2023/06/04 04:09:56;;;;;;;2.95;1.10;;;;;;;10.89;100.00;101772.72;6166710;23;20084;-77
2023/06/04 04:12:22;;;;;;;2.28;1.27;;;;;;;10.81;100.00;101775.97;6091500;23;20016;-77
2023/06/04 04:14:47;;;;;;;4.72;1.38;;;;;;;10.77;100.00;101775.31;6119091;23;20016;-77
2023/06/04 04:17:16;;;;;;;2.33;1.42;;;;;;;10.84;100.00;101776.66;6168227;23;20048;-76
2023/06/04 04:19:41;;;;;;;2.58;1.40;;;;;;;10.85;100.00;101772.03;6165938;23;20017;-77
2023/06/04 04:22:08;;;;;;;2.00;1.20;;;;;;;10.93;100.00;101783.38;6139741;23;20019;-77
2023/06/04 04:24:36;;;;;;;2.75;1.60;;;;;;;10.88;100.00;101776.44;6163109;23;20057;-77
2023/06/04 04:27:03;;;;;;;5.00;1.13;;;;;;;10.93;100.00;101785.25;6188476;23;20009;-77
2023/06/04 04:29:32;;;;;;;3.10;1.20;;;;;;;10.97;100.00;101782.22;6162613;23;20437;-77
2023/06/04 04:32:02;;;;;;;3.50;1.58;;;;;;;10.95;100.00;101780.53;6161312;23;20370;-77
2023/06/04 04:34:28;;;;;;;3.92;1.38;;;;;;;11.05;100.00;101787.16;6114237;23;20017;-76
2023/06/04 04:36:54;;;;;;;4.20;1.30;;;;;;;11.07;100.00;101785.22;6135363;23;20043;-76
2023/06/04 04:39:23;;;;;;;1.85;1.10;;;;;;;11.15;100.00;101782.84;6110263;23;20013;-76
2023/06/04 04:41:48;;;;;;;3.47;1.30;;;;;;;11.13;100.00;101781.19;6158902;23;20436;-76
2023/06/04 04:44:14;;;;;;;5.07;1.48;;;;;;;11.22;100.00;101789.66;6159354;23;20008;-76
2023/06/04 04:46:39;;;;;;;7.03;1.50;;;;;;;11.24;100.00;101785.97;6138016;23;20358;-76
2023/06/04 04:49:05;;;;;;;3.05;1.40;;;;;;;11.24;100.00;101778.59;6140152;23;20341;-77
2023/06/04 04:51:30;;;;;;;3.72;1.27;;;;;;;11.29;100.00;101783.78;6140643;23;20033;-77
2023/06/04 04:53:56;;;;;;;6.05;1.48;;;;;;;11.38;100.00;101783.16;6141700;23;20009;-78
2023/06/04 04:56:22;;;;;;;3.30;1.58;;;;;;;11.42;100.00;101781.97;6194264;23;20013;-77
2023/06/04 04:58:48;;;;;;;3.70;1.33;;;;;;;11.49;100.00;101777.81;6192552;23;20013;-77
2023/06/04 05:01:14;;;;;;;6.72;1.83;;;;;;;11.53;100.00;101775.75;6192419;23;20009;-77
2023/06/04 05:03:40;;;;;;;4.60;1.55;;;;;;;11.48;100.00;101783.41;6146872;23;20036;-77
2023/06/04 05:06:05;;;;;;;3.38;1.20;;;;;;;11.66;100.00;101778.50;6179000;23;20085;-77
2023/06/04 05:08:30;;;;;;;3.75;1.33;;;;;;;11.65;100.00;101774.91;6164705;23;20031;-77
2023/06/04 05:10:56;;;;;;;3.20;1.20;;;;;;;11.75;100.00;101776.00;6161008;23;20009;-77
2023/06/04 05:13:23;;;;;;;2.35;1.38;;;;;;;11.83;100.00;101777.38;6159036;23;20013;-77
2023/06/04 05:15:52;;;;;;;4.45;1.27;;;;;;;11.87;100.00;101776.16;6135435;23;20020;-77
2023/06/04 05:18:20;;;;;;;3.55;1.52;;;;;;;12.11;100.00;101790.06;6135633;23;20109;-77
2023/06/04 05:20:46;;;;;;;2.10;1.48;;;;;;;12.23;100.00;101785.56;6160418;23;20349;-76
2023/06/04 05:23:12;;;;;;;2.67;1.30;;;;;;;12.52;100.00;101786.22;6116836;23;20013;-78
2023/06/04 05:25:38;;;;;;;3.53;1.58;;;;;;;12.77;100.00;101795.41;6170641;23;20032;-79
2023/06/04 05:28:06;;;;;;;3.70;1.52;;;;;;;12.80;100.00;101786.94;6164120;23;20056;-78
2023/06/04 05:30:33;;;;;;;2.00;1.40;;;;;;;13.10;100.00;101791.16;6141993;23;20071;-81
2023/06/04 05:32:59;;;;;;;5.50;1.90;;;;;;;13.41;100.00;101793.38;6167101;23;20021;-80
2023/06/04 05:35:24;;;;;;;3.08;1.55;;;;;;;13.59;100.00;101798.47;6161817;23;20023;-81
2023/06/04 05:37:53;;;;;;;2.75;1.27;;;;;;;13.68;98.28;101795.00;6165690;23;20005;-79
2023/06/04 05:40:22;;;;;;;4.63;1.20;;;;;;;14.19;94.76;101792.91;6194603;23;20017;-80
2023/06/04 05:42:48;;;;;;;3.78;1.20;;;;;;;14.49;92.92;101804.25;6161594;23;20005;-80
2023/06/04 05:45:13;;;;;;;3.10;1.38;;;;;;;14.75;92.91;101793.00;6136516;23;20021;-81
2023/06/04 05:47:40;;;;;;;3.80;1.33;;;;;;;14.84;91.57;101792.25;6110510;23;20092;-80
2023/06/04 05:50:06;;;;;;;3.50;1.33;;;;;;;15.22;87.85;101793.69;6134146;23;20013;-80
2023/06/04 05:52:33;;;;;;;6.10;1.17;;;;;;;15.42;84.34;101775.44;6108985;23;20467;-80
2023/06/04 05:54:59;;;;;;;4.30;1.27;;;;;;;16.08;79.78;101781.84;6133420;23;20021;-81
2023/06/04 05:57:25;;;;;;;1.23;1.13;;;;;;;15.91;79.81;101786.94;6109180;23;20019;-79
2023/06/04 05:59:50;;;;;;;1.48;1.10;;;;;;;15.67;80.90;101787.16;6134432;23;20013;-80
2023/06/04 06:02:16;;;;;;;2.63;1.30;;;;;;;15.86;81.27;101793.91;6133425;23;20013;-80
2023/06/04 06:04:41;;;;;;;3.60;1.48;;;;;;;16.43;75.93;101800.84;6133882;23;20346;-80
2023/06/04 06:07:07;;;;;;;2.70;1.40;;;;;;;16.35;76.29;101798.75;6133040;23;20013;-80
2023/06/04 06:09:33;;;;;;;2.80;1.38;;;;;;;16.82;75.62;101797.38;6109900;23;20329;-80
2023/06/04 06:11:58;;;;;;;2.20;1.25;;;;;;;17.26;72.14;101800.75;6107510;23;20064;-79
2023/06/04 06:14:24;;;;;;;3.63;1.30;;;;;;;16.75;72.45;101801.72;6133544;23;20013;-81
2023/06/04 06:16:49;;;;;;;4.22;1.40;;;;;;;16.93;69.23;101802.84;6157964;23;20503;-81
2023/06/04 06:19:15;;;;;;;4.40;1.40;;;;;;;17.51;68.70;101806.78;6158246;23;20021;-81
2023/06/04 06:21:40;;;;;;;2.25;1.30;;;;;;;17.78;66.90;101806.09;6157466;23;20020;-81
2023/06/04 06:24:06;;;;;;;4.72;1.58;;;;;;;18.13;62.84;101810.19;6133352;23;20013;-82
2023/06/04 06:26:31;;;;;;;7.07;1.45;;;;;;;18.14;61.86;101806.38;6158148;23;20107;-82
2023/06/04 06:28:57;;;;;;;2.15;1.30;;;;;;;18.69;58.93;101802.88;6157865;23;20024;-81
2023/06/04 06:31:22;;;;;;;4.30;1.30;;;;;;;18.48;58.25;101816.97;6180889;23;20099;-80
2023/06/04 06:33:48;;;;;;;13.50;1.50;;;;;;;18.35;59.63;101814.53;6107670;23;20017;-79
2023/06/04 06:36:13;;;;;;;5.15;1.40;;;;;;;18.53;58.28;101817.41;6131960;23;20013;-80
2023/06/04 06:38:40;;;;;;;2.63;1.50;;;;;;;18.92;55.80;101822.84;6108662;23;20013;-80
2023/06/04 06:41:05;;;;;;;4.05;1.40;;;;;;;19.06;55.24;101822.34;6182503;23;20011;-81
2023/06/04 06:43:31;;;;;;;4.45;1.25;;;;;;;18.86;56.92;101816.00;6157150;23;20404;-80
2023/06/04 06:45:57;;;;;;;2.63;1.20;;;;;;;18.93;56.45;101830.16;6132998;23;20017;-80
2023/06/04 06:48:23;;;;;;;3.63;1.65;;;;;;;18.96;55.61;101807.63;6156474;23;20068;-81
2023/06/04 06:50:48;;;;;;;3.15;1.23;;;;;;;18.87;54.21;101814.09;6184850;23;20035;-82
2023/06/04 06:53:14;;;;;;;2.20;1.30;;;;;;;19.57;50.27;101820.00;6155014;23;20017;-80
2023/06/04 06:55:39;;;;;;;3.08;1.42;;;;;;;19.96;50.00;101822.50;6132263;23;20009;-80
2023/06/04 06:58:05;;;;;;;3.38;1.48;;;;;;;20.14;48.76;101828.06;6084972;23;20013;-79
2023/06/04 07:00:30;;;;;;;1.60;1.10;;;;;;;20.44;46.89;101825.84;6182289;23;20091;-79
2023/06/04 07:02:56;;;;;;;7.38;1.17;;;;;;;20.41;48.54;101831.72;6130809;23;20346;-80
2023/06/04 07:05:21;;;;;;;3.50;1.35;;;;;;;20.83;47.19;101832.94;6130765;23;20096;-80
2023/06/04 07:07:47;;;;;;;4.30;1.33;;;;;;;20.51;46.31;101834.41;6131318;23;20013;-80
2023/06/04 07:10:13;;;;;;;5.18;1.20;;;;;;;20.83;46.10;101830.16;6182736;23;20017;-79
2023/06/04 07:12:40;;;;;;;3.90;1.40;;;;;;;20.53;47.41;101838.78;6132288;23;20029;-80
2023/06/04 07:15:06;;;;;;;12.50;1.83;;;;;;;20.51;47.82;101840.88;6156250;23;20017;-81
2023/06/04 07:17:32;;;;;;;3.20;1.10;;;;;;;21.00;46.71;101834.75;6106250;23;20009;-81
2023/06/04 07:19:58;;;;;;;4.20;1.10;;;;;;;21.89;44.49;101845.53;6131790;23;20021;-81
2023/06/04 07:22:23;;;;;;;3.83;1.20;;;;;;;21.71;45.53;101832.63;6131782;23;20009;-80
2023/06/04 07:24:50;;;;;;;4.97;1.20;;;;;;;21.96;42.75;101835.44;6184007;23;20020;-81
2023/06/04 07:27:15;;;;;;;3.83;1.27;;;;;;;22.01;42.96;101833.88;6112647;23;20009;-84
2023/06/04 07:29:43;;;;;;;4.63;1.10;;;;;;;22.64;41.25;101827.75;6156374;23;20381;-84
2023/06/04 07:32:09;;;;;;;3.47;1.30;;;;;;;21.97;42.25;101838.06;6185025;23;20013;-85
2023/06/04 07:34:36;;;;;;;5.78;1.42;;;;;;;21.98;43.06;101839.78;6109719;23;20426;-84
2023/06/04 07:37:02;;;;;;;4.07;1.30;;;;;;;22.48;41.79;101837.91;6185561;23;20131;-84
2023/06/04 07:39:28;;;;;;;1.60;1.00;;;;;;;23.08;40.91;101819.81;6160509;23;20099;-85
2023/06/04 07:41:53;;;;;;;8.82;1.23;;;;;;;21.83;41.84;101838.72;6188095;23;20005;-83
2023/06/04 07:44:19;;;;;;;4.32;1.25;;;;;;;22.96;40.23;101835.19;6161888;23;20021;-84
2023/06/04 07:46:44;;;;;;;1.63;1.10;;;;;;;23.03;40.84;101846.53;6136247;23;20092;-84
2023/06/04 07:49:10;;;;;;;2.53;1.00;;;;;;;23.28;39.21;101828.66;6159943;23;20025;-83
2023/06/04 07:51:37;;;;;;;6.85;1.20;;;;;;;23.49;38.16;101830.78;6159871;23;20013;-83
2023/06/04 07:54:03;;;;;;;17.90;1.60;;;;;;;23.32;40.16;101837.53;6087644;23;20072;-84
2023/06/04 07:56:28;;;;;;;4.20;0.90;;;;;;;23.36;39.89;101835.25;6160578;23;20020;-84
2023/06/04 07:58:54;;;;;;;5.45;1.13;;;;;;;23.19;39.39;101840.03;6134895;23;20012;-84
2023/06/04 08:01:19;;;;;;;1.17;0.88;;;;;;;23.16;39.10;101827.28;6135108;23;20348;-83
2023/06/04 08:03:45;;;;;;;3.38;1.00;;;;;;;23.60;38.17;101825.88;6111877;23;20026;-84
2023/06/04 08:06:11;;;;;;;3.20;0.93;;;;;;;24.02;38.33;101830.13;6110652;23;20009;-84
2023/06/04 08:08:36;;;;;;;3.55;0.90;;;;;;;24.31;36.09;101822.91;6111960;23;20020;-84
2023/06/04 08:11:02;;;;;;;5.45;1.00;;;;;;;23.98;36.33;101846.44;6135409;23;20024;-84
2023/06/04 08:13:28;;;;;;;15.07;1.25;;;;;;;23.70;38.42;101837.69;6160585;23;20012;-83
2023/06/04 08:15:53;;;;;;;2.55;1.02;;;;;;;24.03;37.69;101837.47;6161439;23;20009;-85
2023/06/04 08:18:19;;;;;;;1.33;0.90;;;;;;;23.75;36.63;101839.94;6105677;23;20025;-85
2023/06/04 08:20:45;;;;;;;3.08;0.90;;;;;;;24.03;37.41;101829.94;6100546;23;20093;-85
2023/06/04 08:23:11;;;;;;;3.70;1.10;;;;;;;24.48;36.51;101832.00;6126200;23;20017;-87
2023/06/04 08:25:36;;;;;;;4.55;0.80;;;;;;;24.49;36.13;101843.03;6108877;23;20010;-81
2023/06/04 08:30:37;;;;;;;3.33;0.80;;;;;;;24.98;35.01;101830.47;6182882;23;20029;-82
2023/06/04 08:33:03;;;;;;;1.30;0.90;;;;;;;25.20;34.88;101842.63;6098540;23;20083;-80
2023/06/04 08:35:28;;;;;;;3.50;1.00;;;;;;;24.59;35.83;101826.00;6159470;23;20034;-80
2023/06/04 08:37:54;;;;;;;3.40;0.90;;;;;;;25.33;34.73;101822.34;6067104;23;20005;-80
2023/06/04 08:40:19;;;;;;;1.33;0.77;;;;;;;25.14;33.54;101824.66;6119039;23;20002;-83
2023/06/04 08:42:46;;;;;;;1.20;0.68;;;;;;;25.14;33.50;101821.88;6118432;23;20040;-80
2023/06/04 08:45:15;;;;;;;1.10;0.70;;;;;;;25.17;33.14;101834.63;6094592;23;20041;-80
2023/06/04 08:47:47;;;;;;;1.73;0.90;;;;;;;24.98;32.71;101838.03;6101827;23;20009;-81
2023/06/04 08:50:17;;;;;;;9.32;0.80;;;;;;;25.59;31.15;101843.38;6126452;23;20014;-80
2023/06/04 08:52:46;;;;;;;2.53;0.73;;;;;;;25.57;30.23;101848.34;6104136;23;20001;-80
2023/06/04 08:55:13;;;;;;;3.63;0.80;;;;;;;25.85;31.08;101849.31;6155876;23;20001;-81
2023/06/04 09:02:50;;;;;;;2.17;0.68;;;;;;;25.30;31.80;101850.78;6111478;23;19908;-80
2023/06/04 09:10:29;;;;;;;3.33;0.70;;;;;;;25.23;30.51;101827.38;6154952;23;20013;-81
2023/06/04 09:12:57;;;;;;;3.75;0.82;;;;;;;25.49;27.73;101850.16;6033915;23;20026;-78
2023/06/04 09:15:23;;;;;;;2.28;0.60;;;;;;;25.60;26.48;101860.03;6147056;23;20041;-82
2023/06/04 09:22:59;;;;;;;0.50;0.50;;;;;;;25.66;26.81;101855.53;6129481;23;20029;-82
2023/06/04 09:25:26;;;;;;;0.70;0.55;;;;;;;25.86;26.81;101855.81;6124108;23;19993;-80
2023/06/04 09:27:56;;;;;;;0.70;0.60;;;;;;;25.92;27.85;101862.53;6156059;23;19998;-80
2023/06/04 09:33:09;;;;;;;1.23;0.70;;;;;;;26.17;27.38;101861.13;6111651;23;20022;-80
2023/06/04 09:40:46;;;;;;;2.58;0.65;;;;;;;25.84;30.13;101843.88;6088435;23;20010;-84
2023/06/04 09:43:22;;;;;;;8.10;0.68;;;;;;;25.81;28.63;101861.13;6059676;23;20029;-82
2023/06/04 09:45:48;;;;;;;1.75;0.65;;;;;;;26.19;26.92;101855.31;6094919;23;20020;-81
2023/06/04 09:50:48;;;;;;;4.07;0.57;;;;;;;25.66;26.97;101849.94;6087141;23;20049;-80
2023/06/04 09:53:22;;;;;;;0.75;0.50;;;;;;;25.38;27.82;101842.25;6179686;23;20021;-82
2023/06/04 09:58:27;;;;;;;0.80;0.57;;;;;;;25.47;27.40;101826.22;6170477;23;20027;-80
2023/06/04 10:00:58;;;;;;;0.80;0.50;;;;;;;25.85;27.23;101848.44;6182251;23;20017;-80
2023/06/04 10:03:32;;;;;;;1.67;0.50;;;;;;;25.88;28.25;101852.81;6156777;23;20081;-79
2023/06/04 10:08:34;;;;;;;2.25;0.63;;;;;;;26.24;27.80;101864.00;6169827;23;20033;-80
2023/06/04 10:11:01;;;;;;;2.13;0.60;;;;;;;25.68;28.80;101854.28;6156953;23;20009;-80
2023/06/04 10:13:48;;;;;;;3.88;0.70;;;;;;;25.87;27.91;101854.72;6157393;23;20425;-79
2023/06/04 10:16:14;;;;;;;0.88;0.50;;;;;;;25.84;27.57;101850.38;6157196;23;20056;-79
2023/06/04 10:18:40;;;;;;;2.17;0.70;;;;;;;25.89;28.68;101846.97;6132609;23;20020;-79
2023/06/04 10:21:07;;;;;;;0.98;0.70;;;;;;;25.66;28.27;101852.75;6109833;23;20005;-79
2023/06/04 10:23:33;;;;;;;3.13;0.77;;;;;;;25.52;28.39;101834.03;6158966;23;20426;-79
2023/06/04 10:26:02;;;;;;;0.65;0.50;;;;;;;25.62;27.95;101855.06;6135209;23;20021;-79
2023/06/04 10:28:28;;;;;;;0.50;0.50;;;;;;;25.37;27.67;101831.25;6142971;23;20034;-79
2023/06/04 10:30:53;;;;;;;1.23;0.60;;;;;;;25.80;28.04;101845.38;6185838;23;20441;-78
2023/06/04 10:33:24;;;;;;;1.85;0.40;;;;;;;25.53;29.08;101844.16;6158687;23;20016;-78
2023/06/04 10:35:50;;;;;;;2.67;0.60;;;;;;;25.73;29.19;101841.59;6163158;23;20020;-79
2023/06/04 10:38:20;;;;;;;4.00;0.90;;;;;;;25.85;29.09;101838.06;6110194;23;20013;-79
2023/06/04 10:40:46;;;;;;;2.50;0.70;;;;;;;25.95;27.48;101842.50;6112526;23;20020;-79
2023/06/04 10:43:13;;;;;;;2.47;0.50;;;;;;;25.64;28.30;101846.47;6085691;23;20037;-79
2023/06/04 10:45:39;;;;;;;0.60;0.60;;;;;;;25.72;28.84;101842.69;6183504;23;20089;-78
2023/06/04 10:48:09;;;;;;;1.35;0.60;;;;;;;26.29;28.64;101838.13;6132721;23;20028;-79
2023/06/04 10:50:51;;;;;;;0.95;0.60;;;;;;;25.35;29.03;101837.06;6184409;23;20498;-78
2023/06/04 10:53:18;;;;;;;1.80;0.68;;;;;;;25.29;28.34;101835.91;6131461;23;20060;-78
2023/06/04 10:55:45;;;;;;;3.97;0.70;;;;;;;25.08;28.66;101836.66;6108579;23;20147;-78
2023/06/04 10:58:11;;;;;;;4.13;0.50;;;;;;;25.64;28.96;101838.06;6132842;23;20096;-79
2023/06/04 11:00:38;;;;;;;1.05;0.60;;;;;;;25.86;28.54;101830.56;6109183;23;20045;-78
2023/06/04 11:03:06;;;;;;;1.45;0.60;;;;;;;26.23;29.50;101846.25;6183556;23;20013;-77
2023/06/04 11:05:39;;;;;;;0.57;0.57;;;;;;;25.84;28.71;101852.31;6157956;23;20485;-78
2023/06/04 11:08:06;;;;;;;0.70;0.50;;;;;;;25.62;28.52;101838.25;6131867;23;20032;-78
2023/06/04 11:10:37;;;;;;;4.07;0.65;;;;;;;25.31;28.50;101833.75;6108247;23;20104;-80
2023/06/04 11:13:03;;;;;;;1.80;0.60;;;;;;;25.20;29.39;101828.59;6162337;23;20020;-80
2023/06/04 11:15:46;;;;;;;1.58;0.60;;;;;;;25.09;28.95;101824.38;6160923;23;20092;-79
2023/06/04 11:18:17;;;;;;;1.00;0.70;;;;;;;25.29;28.60;101837.84;6160918;23;20009;-82
2023/06/04 11:20:47;;;;;;;2.05;0.68;;;;;;;25.73;28.97;101830.38;6160809;23;20428;-78
2023/06/04 11:23:14;;;;;;;2.30;0.68;;;;;;;25.81;28.97;101814.31;6186489;23;20009;-79
2023/06/04 11:25:40;;;;;;;0.60;0.60;;;;;;;25.90;29.49;101819.78;6158757;23;20468;-80
2023/06/04 11:28:06;;;;;;;1.25;0.70;;;;;;;26.06;28.61;101824.31;6161546;23;20020;-78
2023/06/04 11:30:31;;;;;;;3.75;0.70;;;;;;;25.73;28.46;101819.16;6137269;23;20012;-79
2023/06/04 11:33:04;;;;;;;1.00;0.77;;;;;;;25.93;29.57;101810.97;6162259;23;20087;-77
2023/06/04 11:35:31;;;;;;;4.05;0.75;;;;;;;25.88;28.02;101821.94;6161201;23;20437;-78
2023/06/04 11:37:58;;;;;;;4.47;0.60;;;;;;;25.39;29.34;101812.31;6105038;23;20013;-81
2023/06/04 11:40:24;;;;;;;3.15;0.73;;;;;;;25.48;28.09;101819.50;6133211;23;20009;-79
2023/06/04 11:42:50;;;;;;;1.80;0.70;;;;;;;25.69;28.50;101810.28;6159250;23;20147;-79
2023/06/04 11:45:20;;;;;;;1.17;0.70;;;;;;;25.41;26.72;101816.63;6137176;23;20015;-79
2023/06/04 11:47:55;;;;;;;1.25;0.60;;;;;;;25.24;27.99;101807.53;6135937;23;20013;-80
2023/06/04 11:50:21;;;;;;;1.30;0.55;;;;;;;25.42;27.10;101809.09;6135276;23;20096;-80
2023/06/04 11:52:48;;;;;;;3.45;0.75;;;;;;;25.54;29.52;101806.66;6159500;23;20088;-79
2023/06/04 11:55:14;;;;;;;1.80;1.15;;;;;;;25.60;29.12;101803.94;6159977;23;20040;-79